Time;durP1;ratioP1;P1;durP2;ratioP2;P2;SDS_P1;SDS_P2;PMS_P1;PMS_P2;Temp;Humidity;BMP_temperature;BMP_pressure;BME280_temperature;BME280_humidity;BME280_pressure;Samples;Min_cycle;Max_cycle;Signal;HPM_P1;HPM_P2
2022/07/04 00:01:00;;;;;;;5.13;2.65;;;18.20;99.90;;;;;;5111805;28;20308;-52
2022/07/04 00:03:28;;;;;;;4.18;2.70;;;18.20;99.90;;;;;;5112500;28;20203;-52
2022/07/04 00:05:56;;;;;;;2.90;2.60;;;18.10;99.90;;;;;;5112767;28;20207;-52
2022/07/04 00:08:24;;;;;;;3.85;2.83;;;18.00;99.90;;;;;;5112076;28;20207;-52
2022/07/04 00:10:52;;;;;;;5.80;2.88;;;18.00;99.90;;;;;;5112705;28;20231;-51
2022/07/04 00:13:20;;;;;;;3.78;3.10;;;18.00;99.90;;;;;;5111944;28;20228;-51
2022/07/04 00:15:48;;;;;;;4.47;2.95;;;18.00;99.90;;;;;;5112323;28;20207;-51
2022/07/04 00:18:18;;;;;;;5.32;3.15;;;17.90;99.90;;;;;;5111145;28;20247;-52
2022/07/04 00:20:46;;;;;;;5.25;3.17;;;17.90;99.90;;;;;;5103828;28;20223;-51
2022/07/04 00:23:14;;;;;;;3.42;2.92;;;17.80;99.90;;;;;;5111973;28;20269;-51
2022/07/04 00:25:42;;;;;;;5.28;3.42;;;17.80;99.90;;;;;;5110992;28;20622;-52
2022/07/04 00:28:10;;;;;;;4.38;3.20;;;17.80;99.90;;;;;;5102386;28;20215;-51
2022/07/04 00:30:38;;;;;;;3.42;3.13;;;17.70;99.90;;;;;;5112123;28;20227;-51
2022/07/04 00:33:06;;;;;;;4.72;3.30;;;17.60;99.90;;;;;;5111796;28;20207;-51
2022/07/04 00:35:35;;;;;;;3.50;3.20;;;17.60;99.90;;;;;;5112901;28;20215;-51
2022/07/04 00:38:03;;;;;;;5.70;3.42;;;17.60;99.90;;;;;;5112226;28;20614;-51
2022/07/04 00:40:32;;;;;;;3.50;3.20;;;17.50;99.90;;;;;;5112356;28;20258;-50
2022/07/04 00:43:02;;;;;;;7.97;3.63;;;17.50;99.90;;;;;;5112070;28;20207;-51
2022/07/04 00:45:30;;;;;;;3.55;3.25;;;17.50;99.90;;;;;;5112281;28;20204;-50
2022/07/04 00:47:58;;;;;;;3.45;3.10;;;17.40;99.90;;;;;;5111612;28;20745;-51
2022/07/04 00:50:26;;;;;;;6.10;3.20;;;17.40;99.90;;;;;;5101587;28;20249;-51
2022/07/04 00:52:56;;;;;;;4.63;3.00;;;17.40;99.90;;;;;;5111678;28;20755;-51
2022/07/04 00:55:25;;;;;;;3.83;3.10;;;17.50;99.90;;;;;;5097281;28;20652;-51
2022/07/04 00:57:53;;;;;;;5.75;3.53;;;17.50;99.90;;;;;;5111817;28;20272;-51
2022/07/04 01:00:21;;;;;;;5.43;3.22;;;17.50;99.90;;;;;;5111256;28;20207;-51
2022/07/04 01:02:49;;;;;;;4.78;3.17;;;17.50;99.90;;;;;;5100075;28;20233;-51
2022/07/04 01:05:17;;;;;;;4.20;3.10;;;17.50;99.90;;;;;;5112160;28;20200;-51
2022/07/04 01:07:46;;;;;;;4.78;2.90;;;17.50;99.90;;;;;;5113943;28;20203;-51
2022/07/04 01:10:15;;;;;;;4.13;3.08;;;17.50;99.90;;;;;;5113152;28;20618;-51
2022/07/04 01:12:43;;;;;;;6.80;3.42;;;17.50;99.90;;;;;;5111062;28;20640;-51
2022/07/04 01:15:11;;;;;;;3.30;3.00;;;17.40;99.90;;;;;;5111380;28;20291;-51
2022/07/04 01:17:39;;;;;;;6.28;3.65;;;17.40;99.90;;;;;;5110872;28;20280;-51
2022/07/04 01:20:12;;;;;;;5.18;3.30;;;17.30;99.90;;;;;;5110578;28;20215;-51
2022/07/04 01:22:41;;;;;;;4.72;3.40;;;17.30;99.90;;;;;;5110957;28;20219;-51
2022/07/04 01:25:10;;;;;;;4.40;3.00;;;17.20;99.90;;;;;;5110472;28;20203;-51
2022/07/04 01:27:38;;;;;;;3.25;2.75;;;17.10;99.90;;;;;;5109502;28;20268;-51
2022/07/04 01:30:07;;;;;;;3.60;3.05;;;17.10;99.90;;;;;;5110846;28;20275;-51
2022/07/04 01:32:35;;;;;;;3.30;3.00;;;17.00;99.90;;;;;;5096383;28;20224;-52
2022/07/04 01:35:03;;;;;;;4.05;2.88;;;17.00;99.90;;;;;;5090166;28;20220;-50
2022/07/04 01:37:32;;;;;;;5.47;3.03;;;16.90;99.90;;;;;;5090679;28;20212;-51
2022/07/04 01:40:00;;;;;;;2.95;2.67;;;16.90;99.90;;;;;;5089825;28;20262;-51
2022/07/04 01:42:29;;;;;;;5.43;3.00;;;16.90;99.90;;;;;;5090219;28;20242;-51
2022/07/04 01:44:57;;;;;;;3.50;3.20;;;16.90;99.90;;;;;;5089970;28;20204;-51
2022/07/04 01:47:25;;;;;;;4.53;3.03;;;16.90;99.90;;;;;;5090235;28;20586;-51
2022/07/04 01:49:53;;;;;;;3.88;3.15;;;16.80;99.90;;;;;;5090230;28;20207;-51
2022/07/04 01:52:21;;;;;;;4.57;3.47;;;16.90;99.90;;;;;;5089933;28;20712;-51
2022/07/04 01:54:50;;;;;;;4.40;3.13;;;16.80;99.90;;;;;;5089596;28;20223;-51
2022/07/04 01:57:18;;;;;;;3.92;3.17;;;16.80;99.90;;;;;;5089563;28;20200;-51
2022/07/04 02:02:32;;;;;;;3.80;3.30;;;16.70;99.90;;;;;;5089242;28;20279;-51
2022/07/04 02:05:00;;;;;;;3.78;2.92;;;16.60;99.90;;;;;;5089967;28;20726;-51
2022/07/04 02:07:28;;;;;;;4.70;3.20;;;16.50;99.90;;;;;;5090063;28;20204;-51
2022/07/04 02:09:58;;;;;;;3.30;3.00;;;16.40;99.90;;;;;;5089593;28;20208;-51
2022/07/04 02:15:11;;;;;;;4.13;3.00;;;16.30;99.90;;;;;;5089120;28;20228;-51
2022/07/04 02:17:39;;;;;;;4.10;3.03;;;16.30;99.90;;;;;;5089404;28;20208;-51
2022/07/04 02:20:08;;;;;;;5.25;3.03;;;16.20;99.90;;;;;;5089648;28;20216;-51
2022/07/04 02:22:36;;;;;;;3.58;3.28;;;16.10;99.90;;;;;;5089576;28;20216;-50
2022/07/04 02:25:07;;;;;;;4.65;3.47;;;16.00;99.90;;;;;;5088832;28;20249;-51
2022/07/04 02:27:35;;;;;;;3.80;2.95;;;16.00;99.90;;;;;;5090077;28;20207;-50
2022/07/04 02:30:03;;;;;;;5.80;3.55;;;15.90;99.90;;;;;;5109643;28;20199;-51
2022/07/04 02:32:31;;;;;;;4.30;3.08;;;15.90;99.90;;;;;;5109754;28;20235;-51
2022/07/04 02:34:59;;;;;;;4.82;3.42;;;15.80;99.90;;;;;;5109448;28;20228;-51
2022/07/04 02:37:27;;;;;;;4.55;3.10;;;15.80;99.90;;;;;;5109769;28;20211;-51
2022/07/04 02:39:56;;;;;;;5.38;3.28;;;15.80;99.90;;;;;;5109955;28;20268;-51
2022/07/04 02:42:29;;;;;;;3.30;3.00;;;15.70;99.90;;;;;;5114881;28;20280;-51
2022/07/04 02:44:57;;;;;;;4.40;3.27;;;15.70;99.90;;;;;;5116576;28;20196;-51
2022/07/04 02:47:25;;;;;;;3.90;3.40;;;15.70;99.90;;;;;;5116065;28;20207;-51
2022/07/04 02:49:54;;;;;;;4.13;3.27;;;15.60;99.90;;;;;;5108641;28;20242;-51
2022/07/04 02:52:22;;;;;;;3.57;3.23;;;15.50;99.90;;;;;;5116663;28;20300;-51
2022/07/04 02:54:52;;;;;;;4.40;3.55;;;15.40;99.90;;;;;;5115398;28;20772;-51
2022/07/04 02:57:20;;;;;;;7.57;4.30;;;15.30;99.90;;;;;;5116650;28;20208;-50
2022/07/04 02:59:49;;;;;;;3.87;3.33;;;15.30;99.90;;;;;;5116078;28;20344;-52
2022/07/04 03:02:17;;;;;;;5.13;3.57;;;15.30;99.90;;;;;;5107691;28;20227;-51
2022/07/04 03:04:45;;;;;;;5.43;3.80;;;15.40;99.90;;;;;;5115724;28;20196;-51
2022/07/04 03:07:14;;;;;;;5.17;3.60;;;15.40;99.90;;;;;;5115713;28;20207;-51
2022/07/04 03:09:42;;;;;;;3.75;3.45;;;15.40;99.90;;;;;;5115823;28;20233;-51
2022/07/04 03:12:10;;;;;;;4.37;3.90;;;15.40;99.90;;;;;;5115728;28;20260;-51
2022/07/04 03:14:38;;;;;;;3.93;3.43;;;15.40;99.90;;;;;;5115674;28;20258;-51
2022/07/04 03:17:08;;;;;;;4.32;3.67;;;15.40;99.90;;;;;;5115477;28;20256;-51
2022/07/04 03:19:36;;;;;;;5.33;3.40;;;15.30;99.90;;;;;;5116510;28;20207;-51
2022/07/04 03:22:04;;;;;;;4.53;3.60;;;15.30;99.90;;;;;;5115778;28;20769;-51
2022/07/04 03:24:32;;;;;;;3.53;3.20;;;15.30;99.90;;;;;;5116050;28;20207;-51
2022/07/04 03:27:01;;;;;;;4.23;3.83;;;15.30;99.90;;;;;;5104213;28;20208;-51
2022/07/04 03:29:29;;;;;;;4.33;3.60;;;15.20;99.90;;;;;;5115778;28;20208;-51
2022/07/04 03:31:57;;;;;;;5.87;3.40;;;15.10;99.90;;;;;;5116313;28;20219;-52
2022/07/04 03:34:27;;;;;;;5.20;3.60;;;15.10;99.90;;;;;;5099872;28;20617;-52
2022/07/04 03:36:55;;;;;;;6.77;3.77;;;15.00;99.90;;;;;;5086741;28;20209;-51
2022/07/04 03:39:23;;;;;;;4.67;3.70;;;15.00;99.90;;;;;;5094307;28;20636;-51
2022/07/04 03:41:51;;;;;;;6.63;3.67;;;14.90;99.90;;;;;;5090264;28;20300;-51
2022/07/04 03:44:19;;;;;;;5.70;3.57;;;14.90;99.90;;;;;;5094653;28;20204;-51
2022/07/04 03:46:47;;;;;;;3.97;3.63;;;14.80;99.90;;;;;;5094850;28;20196;-51
2022/07/04 03:49:15;;;;;;;5.13;3.77;;;14.80;99.90;;;;;;5095330;28;20204;-51
2022/07/04 03:51:45;;;;;;;4.30;3.90;;;14.80;99.90;;;;;;5084874;28;20285;-52
2022/07/04 03:54:13;;;;;;;4.40;3.80;;;14.70;99.90;;;;;;5090439;28;20209;-52
2022/07/04 03:56:44;;;;;;;6.47;3.50;;;14.70;99.90;;;;;;5091986;28;20217;-53
2022/07/04 03:59:12;;;;;;;4.63;4.10;;;14.70;99.90;;;;;;5092186;28;20584;-51
2022/07/04 04:01:41;;;;;;;4.67;4.27;;;14.70;99.90;;;;;;5091346;28;20316;-51
2022/07/04 04:06:56;;;;;;;5.13;3.67;;;14.80;99.90;;;;;;5091536;28;20196;-51
2022/07/04 04:09:24;;;;;;;4.57;3.80;;;14.80;99.90;;;;;;5091593;28;20234;-51
2022/07/04 04:11:53;;;;;;;4.00;3.60;;;14.80;99.90;;;;;;5091785;28;20651;-51
2022/07/04 04:14:21;;;;;;;5.73;3.50;;;14.80;99.90;;;;;;5091394;28;20208;-51
2022/07/04 04:16:49;;;;;;;4.87;3.90;;;15.10;99.90;;;;;;5090551;28;20253;-52
2022/07/04 04:19:17;;;;;;;4.22;3.30;;;16.20;99.90;;;;;;5090872;28;20218;-52
2022/07/04 04:21:45;;;;;;;3.85;3.42;;;17.10;99.90;;;;;;5091479;28;20292;-52
2022/07/04 04:24:15;;;;;;;5.07;3.42;;;18.00;99.90;;;;;;5090350;28;20641;-52
2022/07/04 04:26:43;;;;;;;5.10;3.25;;;18.60;99.90;;;;;;5091661;28;20212;-52
2022/07/04 04:29:11;;;;;;;5.20;2.88;;;19.20;99.90;;;;;;5105435;28;20203;-53
2022/07/04 04:31:39;;;;;;;3.58;2.70;;;19.60;99.90;;;;;;5097386;28;20219;-52
2022/07/04 04:34:07;;;;;;;3.08;2.70;;;20.10;99.90;;;;;;5111602;28;20220;-52
2022/07/04 04:36:35;;;;;;;3.03;2.67;;;20.40;99.90;;;;;;5111059;28;20225;-51
2022/07/04 04:39:04;;;;;;;3.70;2.90;;;20.70;99.90;;;;;;5111133;28;20211;-52
2022/07/04 04:41:33;;;;;;;3.45;2.72;;;20.80;99.90;;;;;;5111080;28;20219;-52
2022/07/04 04:44:01;;;;;;;6.70;2.70;;;21.20;99.90;;;;;;5113903;28;20240;-51
2022/07/04 04:46:29;;;;;;;3.00;2.50;;;21.50;99.90;;;;;;5116823;28;20245;-52
2022/07/04 04:48:57;;;;;;;3.05;2.50;;;21.70;99.90;;;;;;5114858;28;20280;-51
2022/07/04 04:51:25;;;;;;;2.92;2.63;;;22.10;99.90;;;;;;5093501;28;20656;-51
2022/07/04 04:53:53;;;;;;;5.75;2.70;;;22.20;99.90;;;;;;5110793;28;20246;-52
2022/07/04 04:56:22;;;;;;;3.67;2.40;;;22.60;99.90;;;;;;5111503;28;20276;-51
2022/07/04 04:58:51;;;;;;;4.05;2.67;;;23.00;99.90;;;;;;5111442;28;20257;-52
2022/07/04 05:01:19;;;;;;;3.25;2.60;;;23.20;99.90;;;;;;5105303;28;20653;-52
2022/07/04 05:04:07;;;;;;;3.50;2.40;;;23.30;99.90;;;;;;5085668;28;20242;-51
2022/07/04 05:06:36;;;;;;;2.45;2.00;;;23.30;99.90;;;;;;5111096;28;20235;-52
2022/07/04 05:09:04;;;;;;;3.58;2.05;;;23.70;99.90;;;;;;5110968;28;20256;-52
2022/07/04 05:11:32;;;;;;;3.55;2.22;;;23.70;99.90;;;;;;5085860;28;20647;-51
2022/07/04 05:14:01;;;;;;;2.70;2.50;;;23.90;99.90;;;;;;5082083;28;20258;-52
2022/07/04 05:16:30;;;;;;;4.05;2.50;;;24.30;99.90;;;;;;5080733;28;20220;-51
2022/07/04 05:18:58;;;;;;;4.47;2.78;;;24.70;99.90;;;;;;5090403;28;20244;-52
2022/07/04 05:21:28;;;;;;;3.83;3.13;;;25.10;99.90;;;;;;5092652;28;20219;-52
2022/07/04 05:23:56;;;;;;;4.20;2.58;;;25.50;99.90;;;;;;5093653;28;20212;-52
2022/07/04 05:26:24;;;;;;;2.75;2.40;;;25.60;99.90;;;;;;5090302;28;20750;-52
2022/07/04 05:28:52;;;;;;;2.92;2.40;;;25.90;99.90;;;;;;5101529;28;20211;-51
2022/07/04 05:31:22;;;;;;;4.18;2.42;;;26.00;99.90;;;;;;5110669;28;20280;-52
2022/07/04 05:33:50;;;;;;;2.22;2.00;;;26.10;99.90;;;;;;5109689;28;20208;-53
2022/07/04 05:36:19;;;;;;;3.28;2.38;;;25.90;99.90;;;;;;5110614;28;20296;-53
2022/07/04 05:38:47;;;;;;;3.38;2.20;;;26.10;99.90;;;;;;5109952;28;20211;-53
2022/07/04 05:41:15;;;;;;;2.22;2.00;;;26.10;99.90;;;;;;5110831;28;20223;-53
2022/07/04 05:43:44;;;;;;;2.85;2.15;;;26.10;98.90;;;;;;5112114;28;20204;-52
2022/07/04 05:46:12;;;;;;;2.70;2.40;;;26.30;98.60;;;;;;5110734;28;20657;-53
2022/07/04 05:48:42;;;;;;;3.40;2.10;;;26.20;97.90;;;;;;5110225;28;20207;-53
2022/07/04 05:51:10;;;;;;;4.47;2.15;;;26.40;98.10;;;;;;5095399;28;20265;-52
2022/07/04 05:53:38;;;;;;;2.90;2.30;;;26.50;97.70;;;;;;5109553;28;20195;-53
2022/07/04 05:56:06;;;;;;;3.20;2.00;;;26.70;97.40;;;;;;5110128;28;20199;-53
2022/07/04 05:58:34;;;;;;;2.50;1.98;;;27.00;96.30;;;;;;5109096;28;20199;-53
2022/07/04 06:01:02;;;;;;;4.78;1.70;;;27.20;95.30;;;;;;5105558;28;20709;-53
2022/07/04 06:03:30;;;;;;;2.80;1.90;;;27.10;95.00;;;;;;5106176;28;20244;-52
2022/07/04 06:06:00;;;;;;;3.88;1.92;;;27.20;94.10;;;;;;5110372;28;20195;-53
2022/07/04 06:08:28;;;;;;;2.97;1.58;;;27.50;93.70;;;;;;5109166;28;20289;-53
2022/07/04 06:10:56;;;;;;;2.28;1.50;;;27.60;93.00;;;;;;5110469;28;20228;-53
2022/07/04 06:13:24;;;;;;;2.80;1.58;;;27.50;93.20;;;;;;5109342;28;20756;-53
2022/07/04 06:15:52;;;;;;;2.53;1.73;;;27.40;92.60;;;;;;5095348;28;20617;-52
2022/07/04 06:18:20;;;;;;;2.50;1.70;;;27.40;92.70;;;;;;5110061;28;20230;-52
2022/07/04 06:20:48;;;;;;;4.40;1.70;;;27.80;92.60;;;;;;5109917;28;20715;-52
2022/07/04 06:23:17;;;;;;;2.17;1.40;;;27.90;93.00;;;;;;5110260;28;20211;-53
2022/07/04 06:25:45;;;;;;;1.90;1.60;;;28.30;92.50;;;;;;5108502;28;20211;-53
2022/07/04 06:28:14;;;;;;;2.63;1.27;;;28.40;91.90;;;;;;5099461;28;20260;-53
2022/07/04 06:31:02;;;;;;;4.95;1.45;;;28.80;91.60;;;;;;5109412;28;20310;-53
2022/07/04 06:33:30;;;;;;;1.48;1.38;;;28.60;91.20;;;;;;5110151;28;20261;-53
2022/07/04 06:35:58;;;;;;;1.88;1.15;;;28.70;90.70;;;;;;5110305;28;20236;-53
2022/07/04 06:38:29;;;;;;;2.08;1.35;;;28.90;90.30;;;;;;5080965;28;20319;-53
2022/07/04 06:40:59;;;;;;;2.17;1.30;;;29.10;88.40;;;;;;5105319;28;20231;-53
2022/07/04 06:43:27;;;;;;;1.75;1.15;;;29.10;87.80;;;;;;5082203;28;20200;-53
2022/07/04 06:45:55;;;;;;;2.80;1.50;;;28.80;88.20;;;;;;5089550;28;20262;-52
2022/07/04 06:48:23;;;;;;;2.80;1.38;;;28.60;87.20;;;;;;5082665;28;20247;-53
2022/07/04 06:50:52;;;;;;;3.90;1.20;;;29.10;87.40;;;;;;5088932;28;20689;-52
2022/07/04 06:53:41;;;;;;;3.45;1.50;;;29.20;87.80;;;;;;5088989;28;20335;-51
2022/07/04 06:56:27;;;;;;;2.50;1.30;;;29.30;86.40;;;;;;5089365;28;20237;-52
2022/07/04 06:58:55;;;;;;;3.97;1.42;;;29.10;86.80;;;;;;5089061;28;20200;-53
2022/07/04 07:01:23;;;;;;;4.32;1.50;;;29.00;87.40;;;;;;5088575;28;20254;-53
2022/07/04 07:03:51;;;;;;;2.40;1.30;;;29.40;88.40;;;;;;5088888;28;20266;-53
2022/07/04 07:06:19;;;;;;;2.25;1.35;;;29.50;85.40;;;;;;5089038;28;20204;-52
2022/07/04 07:08:49;;;;;;;3.17;1.33;;;29.50;85.30;;;;;;5088835;28;20201;-53
2022/07/04 07:11:19;;;;;;;2.63;1.50;;;29.70;85.50;;;;;;5088693;28;20782;-53
2022/07/04 07:13:49;;;;;;;3.72;1.50;;;29.60;83.20;;;;;;5088188;28;20205;-52
2022/07/04 07:16:18;;;;;;;3.80;1.58;;;29.40;83.90;;;;;;5089145;28;20253;-52
2022/07/04 07:18:48;;;;;;;4.45;1.48;;;29.60;81.40;;;;;;5089389;28;20228;-53
2022/07/04 07:21:17;;;;;;;2.78;1.60;;;29.50;83.20;;;;;;5109591;28;20769;-52
2022/07/04 07:23:45;;;;;;;2.53;1.33;;;29.40;82.90;;;;;;5108805;28;20216;-53
2022/07/04 07:26:15;;;;;;;2.40;1.30;;;29.30;83.20;;;;;;5101040;28;20211;-53
2022/07/04 07:28:43;;;;;;;1.02;1.00;;;29.20;80.20;;;;;;5108114;28;20741;-53
2022/07/04 07:31:11;;;;;;;3.00;1.15;;;29.10;80.30;;;;;;5113067;28;20276;-53
2022/07/04 07:33:39;;;;;;;2.85;1.35;;;28.80;82.50;;;;;;5112957;28;20613;-53
2022/07/04 07:36:08;;;;;;;2.47;1.38;;;29.10;83.60;;;;;;5112545;28;20245;-53
2022/07/04 07:38:36;;;;;;;1.98;1.50;;;29.10;82.20;;;;;;5112797;28;20228;-53
2022/07/04 07:41:04;;;;;;;2.95;1.30;;;29.00;80.90;;;;;;5084479;28;20231;-53
2022/07/04 07:43:33;;;;;;;0.90;0.85;;;29.00;81.50;;;;;;5112686;28;20207;-52
2022/07/04 07:46:01;;;;;;;1.88;1.30;;;29.00;80.60;;;;;;5113490;28;20575;-50
2022/07/04 07:48:29;;;;;;;2.13;1.30;;;29.20;79.10;;;;;;5104092;28;20318;-49
2022/07/04 07:50:58;;;;;;;2.60;1.08;;;29.20;78.50;;;;;;5093744;28;20654;-48
2022/07/04 07:53:26;;;;;;;2.17;1.42;;;29.00;78.60;;;;;;5093815;28;20287;-50
2022/07/04 07:55:54;;;;;;;3.10;1.15;;;28.70;80.10;;;;;;5093756;28;20746;-50
2022/07/04 07:58:22;;;;;;;2.15;1.63;;;28.50;80.40;;;;;;5093121;28;20228;-50
2022/07/04 08:00:52;;;;;;;3.25;1.55;;;28.50;79.80;;;;;;5092686;28;20769;-49
2022/07/04 08:06:08;;;;;;;4.18;1.60;;;28.80;79.60;;;;;;5092062;28;20208;-50
2022/07/04 08:08:37;;;;;;;3.65;1.58;;;28.70;82.00;;;;;;5091778;28;20270;-49
2022/07/04 08:11:05;;;;;;;3.58;1.50;;;28.60;81.50;;;;;;5091882;28;20227;-50
2022/07/04 08:13:33;;;;;;;1.35;0.95;;;28.40;80.50;;;;;;5092190;28;20204;-51
2022/07/04 08:16:03;;;;;;;1.40;0.90;;;28.00;80.80;;;;;;5091814;28;20265;-50
2022/07/04 08:18:31;;;;;;;2.22;1.35;;;27.40;81.50;;;;;;5091466;28;20235;-51
2022/07/04 08:21:00;;;;;;;2.40;1.10;;;27.20;83.30;;;;;;5091473;28;20728;-51
2022/07/04 08:23:33;;;;;;;2.72;1.40;;;27.20;83.30;;;;;;5090690;28;20728;-51
2022/07/04 08:26:02;;;;;;;1.60;1.40;;;27.00;83.60;;;;;;5091941;28;20738;-51
2022/07/04 08:28:30;;;;;;;2.88;1.40;;;26.60;82.00;;;;;;5099712;28;20664;-51
2022/07/04 08:30:59;;;;;;;1.60;1.10;;;26.40;82.30;;;;;;5112019;28;20649;-51
2022/07/04 08:33:29;;;;;;;3.10;1.30;;;26.10;84.50;;;;;;5111235;28;20303;-51
2022/07/04 08:36:02;;;;;;;1.90;1.13;;;26.20;84.80;;;;;;5112317;28;20211;-52
2022/07/04 08:38:31;;;;;;;1.45;1.10;;;26.00;84.20;;;;;;5099572;28;20270;-51
2022/07/04 08:41:02;;;;;;;2.50;1.30;;;26.00;84.20;;;;;;5085824;28;20951;-51
2022/07/04 08:43:33;;;;;;;1.50;1.40;;;25.90;86.80;;;;;;5083976;28;20209;-51
2022/07/04 08:46:04;;;;;;;1.83;1.13;;;26.00;85.30;;;;;;5090523;28;20205;-52
2022/07/04 08:48:53;;;;;;;1.73;1.17;;;26.10;84.60;;;;;;5090420;28;20665;-51
2022/07/04 08:51:32;;;;;;;2.55;1.35;;;26.30;86.50;;;;;;5090287;28;20224;-51
2022/07/04 08:58:25;;;;;;;1.58;0.80;;;26.50;87.40;;;;;;5090624;28;20215;-52
2022/07/04 08:59:37;;;;;;;3.20;1.15;;;26.40;84.70;;;;;;5090164;28;20228;-50
2022/07/04 09:02:05;;;;;;;1.75;1.00;;;26.40;86.30;;;;;;5090628;28;20220;-52
2022/07/04 09:04:36;;;;;;;1.45;1.23;;;26.30;85.30;;;;;;5090177;28;20906;-51
2022/07/04 09:07:05;;;;;;;1.42;1.20;;;26.30;86.40;;;;;;5090917;28;20200;-51
2022/07/04 09:09:34;;;;;;;2.10;1.15;;;26.30;86.80;;;;;;5089304;28;20274;-51
2022/07/04 09:12:02;;;;;;;4.88;1.10;;;26.10;86.80;;;;;;5089950;28;20224;-51
2022/07/04 09:14:30;;;;;;;1.58;1.20;;;26.20;85.20;;;;;;5089823;28;20214;-51
2022/07/04 09:16:58;;;;;;;1.73;1.50;;;26.20;86.80;;;;;;5079942;28;20281;-51
2022/07/04 09:19:27;;;;;;;2.05;0.80;;;25.70;85.50;;;;;;5085469;28;20579;-52
2022/07/04 09:21:56;;;;;;;1.65;1.33;;;25.80;87.40;;;;;;5090473;28;20234;-52
2022/07/04 09:24:44;;;;;;;3.85;1.42;;;25.80;87.60;;;;;;5090274;28;20878;-52
2022/07/04 09:27:13;;;;;;;2.78;1.23;;;25.80;86.10;;;;;;5090102;28;20208;-52
2022/07/04 09:29:53;;;;;;;2.22;1.02;;;25.80;86.10;;;;;;5108053;28;20229;-52
2022/07/04 09:32:34;;;;;;;1.55;0.90;;;25.70;82.20;;;;;;5110200;28;20227;-51
2022/07/04 09:35:02;;;;;;;1.67;1.02;;;25.70;85.20;;;;;;5096583;28;20722;-52
2022/07/04 09:37:39;;;;;;;2.53;1.08;;;25.60;82.00;;;;;;5110629;28;20921;-52
2022/07/04 09:40:10;;;;;;;1.80;1.20;;;25.50;81.10;;;;;;5109417;28;20284;-52
2022/07/04 09:42:40;;;;;;;2.88;1.35;;;25.50;83.30;;;;;;5110255;28;20310;-51
2022/07/04 09:45:11;;;;;;;2.35;1.00;;;25.50;84.70;;;;;;5110303;28;20629;-51
2022/07/04 09:47:40;;;;;;;1.88;1.10;;;25.60;83.00;;;;;;5110690;28;20211;-52
2022/07/04 09:50:10;;;;;;;1.52;1.10;;;25.60;82.20;;;;;;5109670;28;20207;-51
2022/07/04 09:52:48;;;;;;;2.17;1.00;;;25.70;85.90;;;;;;5108668;28;20703;-50
2022/07/04 09:55:25;;;;;;;3.15;1.20;;;25.90;83.70;;;;;;5109761;28;20203;-51
2022/07/04 09:57:55;;;;;;;1.05;0.90;;;26.00;83.70;;;;;;5110254;28;20207;-51
2022/07/04 10:00:26;;;;;;;1.48;1.10;;;26.00;83.00;;;;;;5107357;28;20897;-52
2022/07/04 10:02:56;;;;;;;2.15;1.00;;;26.00;81.10;;;;;;5100149;28;20203;-52
2022/07/04 10:05:26;;;;;;;1.52;1.10;;;25.80;81.10;;;;;;5095958;28;20668;-52
2022/07/04 10:07:58;;;;;;;1.80;1.20;;;25.90;83.90;;;;;;5109193;28;20204;-52
2022/07/04 10:10:29;;;;;;;1.33;0.88;;;25.90;81.50;;;;;;5109724;28;20599;-52
2022/07/04 10:13:00;;;;;;;1.92;1.10;;;26.00;82.70;;;;;;5100372;28;20628;-52
2022/07/04 10:15:28;;;;;;;3.03;1.35;;;26.00;80.10;;;;;;5088406;28;20211;-51
2022/07/04 10:17:56;;;;;;;1.42;1.15;;;25.90;78.20;;;;;;5088418;28;20213;-52
2022/07/04 10:20:25;;;;;;;1.98;1.20;;;25.70;78.70;;;;;;5089110;28;20258;-51
2022/07/04 10:22:53;;;;;;;1.25;1.10;;;25.60;80.00;;;;;;5094991;28;20231;-52
2022/07/04 10:25:22;;;;;;;2.17;1.10;;;25.60;79.70;;;;;;5088201;28;20285;-52
2022/07/04 10:27:51;;;;;;;1.52;1.20;;;25.60;80.10;;;;;;5092253;28;20211;-51
2022/07/04 10:30:24;;;;;;;2.05;1.10;;;25.70;78.10;;;;;;5108982;28;20208;-52
2022/07/04 10:32:54;;;;;;;1.88;1.13;;;25.80;82.60;;;;;;5109210;28;20284;-52
2022/07/04 10:35:54;;;;;;;1.90;0.95;;;26.00;82.10;;;;;;5109345;28;20264;-52
2022/07/04 10:38:23;;;;;;;1.00;0.80;;;26.00;79.60;;;;;;5108773;28;20203;-52
2022/07/04 10:40:56;;;;;;;1.60;1.02;;;25.90;81.50;;;;;;5109384;28;20297;-52
2022/07/04 10:44:01;;;;;;;0.80;0.80;;;25.70;78.50;;;;;;5109141;28;20196;-51
2022/07/04 10:46:56;;;;;;;2.78;1.40;;;25.70;75.80;;;;;;5108843;28;20688;-52
2022/07/04 10:49:27;;;;;;;2.50;1.30;;;25.80;82.00;;;;;;5091739;28;20199;-52
2022/07/04 10:52:02;;;;;;;2.97;1.13;;;25.70;77.30;;;;;;5108528;28;20223;-52
2022/07/04 10:54:31;;;;;;;1.42;0.82;;;25.60;75.90;;;;;;5105059;28;20614;-52
2022/07/04 10:57:11;;;;;;;1.73;0.93;;;25.40;76.60;;;;;;5109226;28;20259;-52
2022/07/04 10:59:41;;;;;;;1.65;1.27;;;25.30;76.70;;;;;;5108267;28;20224;-51
2022/07/04 11:02:30;;;;;;;1.35;1.15;;;25.30;77.80;;;;;;5100831;28;20259;-52
2022/07/04 11:05:01;;;;;;;3.33;1.30;;;25.40;77.70;;;;;;5101212;28;20204;-51
2022/07/04 11:08:02;;;;;;;2.53;0.90;;;25.60;81.50;;;;;;5113706;28;20213;-52
2022/07/04 11:10:33;;;;;;;0.77;0.70;;;25.70;83.80;;;;;;5107298;28;20196;-52
2022/07/04 11:13:24;;;;;;;1.67;0.98;;;25.90;83.40;;;;;;5097289;28;20636;-52
2022/07/04 11:16:06;;;;;;;2.85;1.30;;;26.10;80.00;;;;;;5093440;28;20249;-52
2022/07/04 11:18:41;;;;;;;1.60;1.00;;;25.70;77.80;;;;;;5092361;28;20208;-51
2022/07/04 11:21:24;;;;;;;3.30;1.00;;;25.30;77.90;;;;;;5092918;28;20227;-52
2022/07/04 11:23:54;;;;;;;1.48;1.13;;;25.40;78.70;;;;;;5088847;28;20246;-51
2022/07/04 11:26:23;;;;;;;2.58;0.90;;;25.50;79.60;;;;;;5093046;28;20216;-51
2022/07/04 11:28:54;;;;;;;1.30;0.80;;;25.60;78.00;;;;;;5100038;28;20295;-51
2022/07/04 11:31:35;;;;;;;1.00;0.70;;;25.70;77.40;;;;;;5113107;28;20222;-51
2022/07/04 11:34:04;;;;;;;1.85;1.08;;;25.90;78.50;;;;;;5113342;28;20231;-52
2022/07/04 11:36:32;;;;;;;2.45;0.80;;;25.90;76.70;;;;;;5113151;28;20627;-51
2022/07/04 11:39:03;;;;;;;5.32;1.20;;;26.10;80.40;;;;;;5112457;28;20207;-52
2022/07/04 11:47:09;;;;;;;0.82;0.60;;;26.10;76.90;;;;;;5112652;28;20210;-52
2022/07/04 11:49:45;;;;;;;0.47;0.45;;;26.10;78.40;;;;;;5109427;28;20287;-51
2022/07/04 11:52:14;;;;;;;1.25;0.82;;;26.10;78.20;;;;;;5076833;28;20221;-51
2022/07/04 11:54:44;;;;;;;0.88;0.50;;;26.10;78.00;;;;;;5089049;28;20244;-51
2022/07/04 11:57:23;;;;;;;0.77;0.70;;;26.10;76.40;;;;;;5088490;28;20207;-52
2022/07/04 12:00:01;;;;;;;0.70;0.70;;;26.00;75.40;;;;;;5091573;28;20265;-52
2022/07/04 12:02:30;;;;;;;1.58;0.60;;;25.90;74.90;;;;;;5086786;28;20236;-52
2022/07/04 12:04:59;;;;;;;0.68;0.52;;;26.10;78.20;;;;;;5083724;28;20204;-52
2022/07/04 12:07:29;;;;;;;2.08;0.47;;;26.20;76.20;;;;;;5090684;28;20661;-52
2022/07/04 12:09:57;;;;;;;1.40;0.85;;;26.10;73.50;;;;;;5093768;28;20722;-52
2022/07/04 12:12:25;;;;;;;1.45;0.70;;;26.20;77.20;;;;;;5091414;28;20273;-52
2022/07/04 12:15:06;;;;;;;2.75;0.95;;;26.10;73.10;;;;;;5093885;28;20200;-51
2022/07/04 12:17:37;;;;;;;0.90;0.70;;;26.10;77.50;;;;;;5079736;28;20213;-51
2022/07/04 12:20:13;;;;;;;3.25;0.80;;;26.10;76.90;;;;;;5094763;28;20231;-51
2022/07/04 12:22:44;;;;;;;2.13;0.82;;;26.30;78.80;;;;;;5091673;28;20231;-52
2022/07/04 12:25:26;;;;;;;0.60;0.60;;;26.30;76.00;;;;;;5091203;28;20269;-52
2022/07/04 12:27:55;;;;;;;0.63;0.60;;;26.30;77.50;;;;;;5094852;28;20575;-52
2022/07/04 12:30:26;;;;;;;0.90;0.60;;;26.30;78.20;;;;;;5111868;28;20207;-51
2022/07/04 12:32:59;;;;;;;1.33;0.55;;;26.10;74.70;;;;;;5111193;28;20228;-51
2022/07/04 12:35:43;;;;;;;1.52;0.80;;;26.10;75.60;;;;;;5112113;28;20211;-52
2022/07/04 12:38:12;;;;;;;3.30;0.88;;;26.10;76.50;;;;;;5110801;28;20660;-51
2022/07/04 12:40:52;;;;;;;1.65;0.82;;;26.20;74.60;;;;;;5111711;28;20223;-51
2022/07/04 12:43:21;;;;;;;0.80;0.70;;;26.20;73.80;;;;;;5110855;28;20646;-51
2022/07/04 12:45:53;;;;;;;1.85;0.68;;;26.10;71.90;;;;;;5111463;28;20219;-51
2022/07/04 12:48:25;;;;;;;1.63;0.70;;;26.10;74.90;;;;;;5086091;28;20201;-51
2022/07/04 12:50:54;;;;;;;1.05;0.70;;;26.10;73.20;;;;;;5082724;28;20251;-51
2022/07/04 12:53:22;;;;;;;1.75;0.68;;;26.00;71.70;;;;;;5087678;28;20208;-52
2022/07/04 12:55:51;;;;;;;1.10;0.80;;;25.80;71.70;;;;;;5084196;28;20638;-53
2022/07/04 12:58:20;;;;;;;0.65;0.55;;;25.90;75.80;;;;;;5091309;28;20681;-51
2022/07/04 13:00:48;;;;;;;0.50;0.50;;;26.20;77.10;;;;;;5096236;28;20265;-51
2022/07/04 13:03:17;;;;;;;3.38;1.00;;;26.20;71.90;;;;;;5106552;28;20894;-53
2022/07/04 13:05:45;;;;;;;3.95;0.90;;;26.30;76.90;;;;;;5112953;28;20200;-51
2022/07/04 13:08:13;;;;;;;0.60;0.60;;;26.50;73.40;;;;;;5112368;28;20257;-52
2022/07/04 13:10:42;;;;;;;0.80;0.60;;;26.50;73.10;;;;;;5110466;28;20598;-51
2022/07/04 13:13:10;;;;;;;1.92;0.93;;;26.50;73.80;;;;;;5111552;28;20211;-52
2022/07/04 13:15:38;;;;;;;1.80;0.82;;;26.50;72.90;;;;;;5111189;28;20225;-52
2022/07/04 13:18:07;;;;;;;0.73;0.63;;;26.60;72.10;;;;;;5108053;28;20211;-52
2022/07/04 13:20:36;;;;;;;0.90;0.60;;;26.50;71.60;;;;;;5110777;28;20704;-51
2022/07/04 13:23:04;;;;;;;1.60;0.77;;;26.50;73.70;;;;;;5110453;28;20754;-52